Time;durP1;ratioP1;P1;durP2;ratioP2;P2;SDS_P1;SDS_P2;PMS_P1;PMS_P2;Temp;Humidity;BMP_temperature;BMP_pressure;BME280_temperature;BME280_humidity;BME280_pressure;Samples;Min_cycle;Max_cycle;Signal;HPM_P1;HPM_P2
2023/01/24 00:00:17;;;;;;;18.67;14.07;;;3.60;99.90;;;;;;4882779;29;20039;-69
2023/01/24 00:02:43;;;;;;;21.50;17.23;;;3.70;99.90;;;;;;4895821;29;20040;-69
2023/01/24 00:05:10;;;;;;;21.38;16.52;;;3.70;99.90;;;;;;4897376;29;20044;-69
2023/01/24 00:07:36;;;;;;;17.77;13.53;;;3.60;99.90;;;;;;4900448;29;20048;-70
2023/01/24 00:10:02;;;;;;;20.42;16.98;;;3.60;99.90;;;;;;4916890;29;20039;-69
2023/01/24 00:12:29;;;;;;;20.65;15.40;;;3.60;99.90;;;;;;4882283;29;20039;-69
2023/01/24 00:14:57;;;;;;;18.45;14.88;;;3.60;99.90;;;;;;4913877;29;20436;-70
2023/01/24 00:17:24;;;;;;;18.17;13.65;;;3.60;99.90;;;;;;4895829;29;20040;-69
2023/01/24 00:19:50;;;;;;;18.63;14.02;;;3.60;99.90;;;;;;4914998;29;20079;-72
2023/01/24 00:22:16;;;;;;;17.10;13.32;;;3.60;99.90;;;;;;4916948;29;20046;-70
2023/01/24 00:24:43;;;;;;;17.52;12.85;;;3.60;99.90;;;;;;4896829;29;20407;-70
2023/01/24 00:27:09;;;;;;;15.55;12.40;;;3.60;99.90;;;;;;4914788;29;20042;-69
2023/01/24 00:29:35;;;;;;;14.18;11.40;;;3.60;99.90;;;;;;4900244;29;20037;-69
2023/01/24 00:32:01;;;;;;;14.18;11.30;;;3.60;99.90;;;;;;4898496;29;20074;-71
2023/01/24 00:34:28;;;;;;;13.75;11.40;;;3.60;99.90;;;;;;4912426;29;20097;-70
2023/01/24 00:36:55;;;;;;;12.27;10.23;;;3.60;99.90;;;;;;4920143;29;20483;-70
2023/01/24 00:39:21;;;;;;;15.25;11.18;;;3.60;99.90;;;;;;4898327;29;20043;-70
2023/01/24 00:41:48;;;;;;;15.45;12.30;;;3.60;99.90;;;;;;4880474;29;20051;-70
2023/01/24 00:44:14;;;;;;;13.90;10.88;;;3.60;99.90;;;;;;4886598;29;20395;-70
2023/01/24 00:46:41;;;;;;;16.17;11.88;;;3.60;99.90;;;;;;4878071;29;20716;-70
2023/01/24 00:49:07;;;;;;;17.08;12.75;;;3.60;99.90;;;;;;4904593;29;20880;-70
2023/01/24 00:51:34;;;;;;;19.00;14.50;;;3.60;99.90;;;;;;4884561;29;20523;-70
2023/01/24 00:54:01;;;;;;;16.27;12.52;;;3.60;99.90;;;;;;4897021;29;20046;-71
2023/01/24 00:56:27;;;;;;;19.60;14.17;;;3.60;99.90;;;;;;4904177;29;20044;-71
2023/01/24 00:58:53;;;;;;;18.30;13.90;;;3.60;99.90;;;;;;4898187;29;20040;-71
2023/01/24 01:01:20;;;;;;;20.05;13.65;;;3.50;99.90;;;;;;4913720;29;20431;-71
2023/01/24 01:03:46;;;;;;;17.47;13.60;;;3.60;99.90;;;;;;4888734;29;20913;-70
2023/01/24 01:06:15;;;;;;;19.50;14.40;;;3.50;99.90;;;;;;4918023;29;20054;-70
2023/01/24 01:08:42;;;;;;;16.02;12.15;;;3.50;99.90;;;;;;4921503;29;20043;-72
2023/01/24 01:11:09;;;;;;;17.27;13.63;;;3.50;99.90;;;;;;4899665;29;20056;-71
2023/01/24 01:13:35;;;;;;;18.67;13.30;;;3.50;99.90;;;;;;4894999;29;20044;-71
2023/01/24 01:16:06;;;;;;;17.10;13.77;;;3.50;99.90;;;;;;4908756;29;20816;-71
2023/01/24 01:18:33;;;;;;;19.17;13.47;;;3.50;99.90;;;;;;4900779;29;20392;-71
2023/01/24 01:20:59;;;;;;;19.50;13.75;;;3.50;99.90;;;;;;4894088;29;20036;-72
2023/01/24 01:23:27;;;;;;;18.07;12.93;;;3.50;99.90;;;;;;4881838;29;20988;-71
2023/01/24 01:25:57;;;;;;;21.13;15.13;;;3.50;99.90;;;;;;4891779;29;20040;-69
2023/01/24 01:28:23;;;;;;;20.10;14.03;;;3.60;99.90;;;;;;4886430;29;20043;-72
2023/01/24 01:30:53;;;;;;;21.27;14.35;;;3.50;99.90;;;;;;4909631;29;20047;-71
2023/01/24 01:33:21;;;;;;;18.92;13.80;;;3.50;99.90;;;;;;4896222;29;20044;-71
2023/01/24 01:35:48;;;;;;;20.92;15.73;;;3.50;99.90;;;;;;4924241;29;20062;-69
2023/01/24 01:38:16;;;;;;;19.13;13.30;;;3.50;99.90;;;;;;4902747;29;20048;-68
2023/01/24 01:40:42;;;;;;;20.98;15.23;;;3.50;99.90;;;;;;4924982;29;20574;-70
2023/01/24 01:43:15;;;;;;;20.88;15.60;;;3.50;99.90;;;;;;4900614;29;20047;-71
2023/01/24 01:45:44;;;;;;;23.13;17.08;;;3.50;99.90;;;;;;4882077;29;20040;-71
2023/01/24 01:48:28;;;;;;;20.48;14.98;;;3.50;99.90;;;;;;4903773;29;20126;-71
2023/01/24 01:51:00;;;;;;;19.70;14.68;;;3.40;99.90;;;;;;4896855;29;20052;-71
2023/01/24 01:53:31;;;;;;;19.23;14.63;;;3.40;99.90;;;;;;4890732;29;20043;-70
2023/01/24 01:56:16;;;;;;;22.30;15.38;;;3.40;99.90;;;;;;4906810;29;20031;-71
2023/01/24 01:58:43;;;;;;;17.35;14.20;;;3.50;99.90;;;;;;4886447;29;20043;-71
2023/01/24 02:01:10;;;;;;;19.75;15.20;;;3.40;99.90;;;;;;4881190;29;20064;-70
2023/01/24 02:03:42;;;;;;;21.58;15.38;;;3.40;99.90;;;;;;4898625;29;20095;-70
2023/01/24 02:06:21;;;;;;;24.10;17.40;;;3.40;99.90;;;;;;4917871;29;20043;-70
2023/01/24 02:08:50;;;;;;;18.90;14.27;;;3.40;99.90;;;;;;4895879;29;20053;-71
2023/01/24 02:16:47;;;;;;;21.47;15.67;;;3.40;99.90;;;;;;4927086;29;20040;-70
2023/01/24 02:19:23;;;;;;;23.30;17.83;;;3.40;99.90;;;;;;4888848;29;20055;-70
2023/01/24 02:21:57;;;;;;;19.92;14.68;;;3.40;99.90;;;;;;4916852;29;20040;-71
2023/01/24 02:24:32;;;;;;;20.43;15.73;;;3.40;99.90;;;;;;4884968;29;20510;-68
2023/01/24 02:26:58;;;;;;;22.42;16.20;;;3.30;99.90;;;;;;4889541;29;20050;-69
2023/01/24 02:29:25;;;;;;;23.50;17.17;;;3.40;99.90;;;;;;4884129;29;20385;-69
2023/01/24 02:31:53;;;;;;;18.08;13.68;;;3.30;99.90;;;;;;4916860;29;20032;-69
2023/01/24 02:34:19;;;;;;;19.77;14.23;;;3.40;99.90;;;;;;4906824;29;20517;-69
2023/01/24 02:36:48;;;;;;;17.73;13.20;;;3.40;99.90;;;;;;4911821;29;20388;-70
2023/01/24 02:39:20;;;;;;;25.87;18.50;;;3.40;99.90;;;;;;4923655;29;20031;-69
2023/01/24 02:42:06;;;;;;;22.75;17.38;;;3.40;99.90;;;;;;4902009;29;20788;-69
2023/01/24 02:44:41;;;;;;;26.97;18.13;;;3.30;99.90;;;;;;4886375;29;20412;-69
2023/01/24 02:47:08;;;;;;;25.50;18.60;;;3.30;99.90;;;;;;4906176;29;20032;-69
2023/01/24 02:49:34;;;;;;;27.20;19.83;;;3.30;99.90;;;;;;4884566;29;20059;-69
2023/01/24 02:54:45;;;;;;;27.88;19.27;;;3.30;99.90;;;;;;4915701;29;20506;-70
2023/01/24 02:59:56;;;;;;;23.60;17.15;;;3.20;99.90;;;;;;4911255;29;20213;-71
2023/01/24 03:02:23;;;;;;;20.60;15.70;;;3.20;99.90;;;;;;4899387;29;20044;-69
2023/01/24 03:04:50;;;;;;;25.30;18.67;;;3.20;99.90;;;;;;4890310;29;20484;-69
2023/01/24 03:07:18;;;;;;;31.20;21.77;;;3.20;99.90;;;;;;4908691;29;20470;-71
2023/01/24 03:09:50;;;;;;;25.70;18.05;;;3.20;99.90;;;;;;4915446;29;20400;-70
2023/01/24 03:34:45;;;;;;;27.70;20.83;;;3.10;99.90;;;;;;4907820;29;20042;-70
2023/01/24 03:37:13;;;;;;;32.13;22.67;;;3.10;99.90;;;;;;4914909;29;20039;-71
2023/01/24 03:39:59;;;;;;;25.50;19.83;;;3.10;99.90;;;;;;4902834;29;20044;-71
2023/01/24 03:42:28;;;;;;;34.17;25.13;;;3.00;99.90;;;;;;4882109;29;20047;-69
2023/01/24 03:44:55;;;;;;;27.67;20.67;;;3.00;99.90;;;;;;4883973;29;20427;-69
2023/01/24 03:47:21;;;;;;;28.73;20.73;;;3.00;99.90;;;;;;4883139;29;20044;-69
2023/01/24 03:52:33;;;;;;;31.83;24.17;;;3.00;99.90;;;;;;4895539;29;20040;-70
2023/01/24 03:55:07;;;;;;;30.30;22.85;;;3.00;99.90;;;;;;4897257;29;20036;-69
2023/01/24 03:57:33;;;;;;;33.70;24.97;;;3.00;99.90;;;;;;4910857;29;20042;-70
2023/01/24 04:00:06;;;;;;;32.33;24.15;;;3.00;99.90;;;;;;4908046;29;20039;-68
2023/01/24 04:02:43;;;;;;;34.10;23.65;;;3.00;99.90;;;;;;4883682;29;20388;-70
2023/01/24 04:05:13;;;;;;;31.95;23.83;;;2.90;99.90;;;;;;4897214;29;20031;-69
2023/01/24 04:07:40;;;;;;;30.63;21.50;;;2.90;99.90;;;;;;4906578;29;20036;-69
2023/01/24 04:10:08;;;;;;;32.00;24.20;;;2.90;99.90;;;;;;4895038;29;20027;-70
2023/01/24 04:12:45;;;;;;;33.22;23.67;;;2.90;99.90;;;;;;4896461;29;20036;-69
2023/01/24 04:15:21;;;;;;;31.73;22.13;;;2.90;99.90;;;;;;4884407;29;20032;-69
2023/01/24 04:17:58;;;;;;;26.77;19.13;;;2.90;99.90;;;;;;4889694;29;20275;-69
2023/01/24 04:20:27;;;;;;;26.63;19.87;;;2.90;99.90;;;;;;4898347;29;20404;-70
2023/01/24 04:22:55;;;;;;;34.23;23.93;;;3.00;99.90;;;;;;4885329;29;20307;-68
2023/01/24 04:25:22;;;;;;;27.60;20.40;;;3.00;99.90;;;;;;4902957;29;20489;-69
2023/01/24 04:27:49;;;;;;;27.13;20.73;;;2.90;99.90;;;;;;4886935;29;20040;-69
2023/01/24 04:30:21;;;;;;;34.15;24.58;;;3.00;99.90;;;;;;4907247;29;20051;-69
2023/01/24 04:32:51;;;;;;;31.95;23.65;;;3.00;99.90;;;;;;4884142;29;20522;-69
2023/01/24 04:35:28;;;;;;;31.50;23.53;;;3.00;99.90;;;;;;4894761;29;20048;-71
2023/01/24 04:38:01;;;;;;;31.90;24.57;;;3.00;99.90;;;;;;4893529;29;20047;-71
2023/01/24 04:40:36;;;;;;;38.40;27.17;;;3.00;99.90;;;;;;4903038;29;20039;-71
2023/01/24 04:43:03;;;;;;;35.17;25.37;;;2.90;99.90;;;;;;4917902;29;20040;-69
2023/01/24 04:45:29;;;;;;;35.40;24.40;;;2.90;99.90;;;;;;4882655;29;20036;-68
2023/01/24 04:47:57;;;;;;;32.45;24.27;;;2.90;99.90;;;;;;4898976;29;20047;-69
2023/01/24 04:50:24;;;;;;;38.17;27.27;;;2.90;99.90;;;;;;4902217;29;20032;-70
2023/01/24 04:52:51;;;;;;;35.00;25.43;;;2.90;99.90;;;;;;4864918;29;20062;-69
2023/01/24 04:55:17;;;;;;;36.27;24.13;;;2.90;99.90;;;;;;4894981;29;20042;-69
2023/01/24 04:57:43;;;;;;;39.07;27.17;;;2.90;99.90;;;;;;4886960;29;20491;-69
2023/01/24 05:00:11;;;;;;;32.83;24.08;;;2.80;99.90;;;;;;4901971;29;20407;-69
2023/01/24 05:02:37;;;;;;;34.67;24.40;;;2.80;99.90;;;;;;4895018;29;20047;-69
2023/01/24 05:05:06;;;;;;;35.47;26.03;;;2.80;99.90;;;;;;4896412;29;20032;-69
2023/01/24 05:07:32;;;;;;;42.20;29.77;;;2.80;99.90;;;;;;4916104;29;20043;-69
2023/01/24 05:10:06;;;;;;;39.08;28.38;;;2.80;99.90;;;;;;4893182;29;20439;-69
2023/01/24 05:12:33;;;;;;;33.77;23.67;;;2.80;99.90;;;;;;4883368;29;20059;-69
2023/01/24 05:15:05;;;;;;;35.17;25.23;;;2.80;99.90;;;;;;4891448;29;20047;-69
2023/01/24 05:17:31;;;;;;;36.67;27.57;;;2.80;99.90;;;;;;4918002;29;20048;-70
2023/01/24 05:19:58;;;;;;;35.70;25.53;;;2.80;99.90;;;;;;4904895;29;20051;-69
2023/01/24 05:22:24;;;;;;;33.77;24.80;;;2.80;99.90;;;;;;4900149;29;20048;-69
2023/01/24 05:24:51;;;;;;;31.80;22.10;;;2.80;99.90;;;;;;4884807;29;20039;-69
2023/01/24 05:27:17;;;;;;;38.70;27.33;;;2.80;99.90;;;;;;4901835;29;20040;-69
2023/01/24 05:29:51;;;;;;;41.08;29.15;;;2.80;99.90;;;;;;4900721;29;20051;-69
2023/01/24 05:32:18;;;;;;;42.40;29.00;;;2.80;99.90;;;;;;4896365;29;20048;-70
2023/01/24 05:34:44;;;;;;;36.80;26.70;;;2.80;99.90;;;;;;4881150;29;20508;-69
2023/01/24 05:37:11;;;;;;;31.37;22.50;;;2.80;99.90;;;;;;4900790;29;20036;-69
2023/01/24 05:39:39;;;;;;;32.83;23.42;;;2.70;99.90;;;;;;4901701;29;20550;-69
2023/01/24 05:42:06;;;;;;;31.83;23.00;;;2.70;99.90;;;;;;4917278;29;20028;-70
2023/01/24 05:44:40;;;;;;;32.47;21.80;;;2.70;99.90;;;;;;4897861;29;20393;-69
2023/01/24 05:47:07;;;;;;;33.33;22.57;;;2.70;99.90;;;;;;4906274;29;20043;-70
2023/01/24 05:49:37;;;;;;;30.43;21.47;;;2.80;99.90;;;;;;4903938;29;20043;-69
2023/01/24 05:52:03;;;;;;;28.80;20.03;;;2.80;99.90;;;;;;4900453;29;20411;-70
2023/01/24 05:54:44;;;;;;;33.53;23.67;;;2.80;99.90;;;;;;4884870;29;20040;-69
2023/01/24 05:57:30;;;;;;;35.00;24.07;;;2.80;99.90;;;;;;4888586;29;20039;-70
2023/01/24 06:00:15;;;;;;;32.23;22.33;;;2.80;99.90;;;;;;4916906;29;20040;-69
2023/01/24 06:02:44;;;;;;;33.97;23.73;;;2.80;99.90;;;;;;4912914;29;20499;-69
2023/01/24 06:05:12;;;;;;;32.63;22.80;;;2.80;99.90;;;;;;4898168;29;20040;-70
2023/01/24 06:07:38;;;;;;;33.70;23.17;;;2.80;99.90;;;;;;4909436;29;20047;-70
2023/01/24 06:10:05;;;;;;;33.40;23.83;;;2.80;99.90;;;;;;4901651;29;20047;-71
2023/01/24 06:12:43;;;;;;;35.07;25.77;;;2.80;99.90;;;;;;4896341;29;20404;-70
2023/01/24 06:15:10;;;;;;;33.30;23.37;;;2.80;99.90;;;;;;4901129;29;20036;-70
2023/01/24 06:17:36;;;;;;;28.33;20.03;;;2.80;99.90;;;;;;4911242;29;20051;-71
2023/01/24 06:20:03;;;;;;;31.63;23.20;;;2.80;99.90;;;;;;4904969;29;20051;-70
2023/01/24 06:22:45;;;;;;;37.23;27.53;;;2.80;99.90;;;;;;4884984;29;20040;-71
2023/01/24 06:25:20;;;;;;;36.47;26.13;;;2.80;99.90;;;;;;4887656;29;20048;-69
2023/01/24 06:27:48;;;;;;;32.10;22.53;;;2.80;99.90;;;;;;4907576;29;20044;-70
2023/01/24 06:30:15;;;;;;;32.57;23.77;;;2.80;99.90;;;;;;4891958;29;20416;-70
2023/01/24 06:33:02;;;;;;;29.83;20.77;;;2.70;99.90;;;;;;4909087;29;20028;-69
2023/01/24 06:35:49;;;;;;;33.13;23.17;;;2.80;99.90;;;;;;4920115;29;20748;-70
2023/01/24 06:38:22;;;;;;;28.90;20.27;;;2.80;99.90;;;;;;4903484;29;20035;-69
2023/01/24 06:40:57;;;;;;;33.13;23.55;;;2.80;99.90;;;;;;4891182;29;20051;-69
2023/01/24 06:43:23;;;;;;;33.23;23.00;;;2.80;99.90;;;;;;4899802;29;20043;-70
2023/01/24 06:45:50;;;;;;;37.83;26.80;;;2.70;99.90;;;;;;4899885;29;20051;-69
2023/01/24 06:48:16;;;;;;;37.13;24.57;;;2.70;99.90;;;;;;4907852;29;20039;-69
2023/01/24 06:50:42;;;;;;;37.30;26.60;;;2.70;99.90;;;;;;4903551;29;20047;-71
2023/01/24 06:53:09;;;;;;;37.73;26.87;;;2.70;99.90;;;;;;4900644;29;20039;-72
2023/01/24 06:55:36;;;;;;;35.77;25.97;;;2.60;99.90;;;;;;4882779;29;20048;-69
2023/01/24 06:58:03;;;;;;;36.30;25.43;;;2.60;99.90;;;;;;4916042;29;20043;-69
2023/01/24 07:00:30;;;;;;;39.17;27.20;;;2.60;99.90;;;;;;4895802;29;20438;-70
2023/01/24 07:03:07;;;;;;;36.80;26.93;;;2.60;99.90;;;;;;4897392;29;20052;-69
2023/01/24 07:05:36;;;;;;;37.60;26.23;;;2.60;99.90;;;;;;4906894;29;20032;-69
2023/01/24 07:08:03;;;;;;;36.10;26.17;;;2.60;99.90;;;;;;4902744;29;20048;-69
2023/01/24 07:10:30;;;;;;;38.03;27.70;;;2.60;99.90;;;;;;4901582;29;20039;-69
2023/01/24 07:12:56;;;;;;;38.00;26.47;;;2.60;99.90;;;;;;4915014;29;20040;-69
2023/01/24 07:15:22;;;;;;;36.03;23.83;;;2.60;99.90;;;;;;4911520;29;20043;-69
2023/01/24 07:17:49;;;;;;;32.13;23.03;;;2.60;99.90;;;;;;4919151;29;20047;-72
2023/01/24 07:20:16;;;;;;;32.43;22.70;;;2.60;99.90;;;;;;4902778;29;20028;-69
2023/01/24 07:22:43;;;;;;;33.20;24.15;;;2.60;99.90;;;;;;4917995;29;20411;-69
2023/01/24 07:25:18;;;;;;;35.75;25.67;;;2.60;99.90;;;;;;4916488;29;20044;-69
2023/01/24 07:27:45;;;;;;;33.17;23.00;;;2.70;99.90;;;;;;4884379;29;20036;-70
2023/01/24 07:30:13;;;;;;;33.23;23.53;;;2.70;99.90;;;;;;4915734;29;20036;-70
2023/01/24 07:32:39;;;;;;;33.03;24.67;;;2.70;99.90;;;;;;4901220;29;20040;-70
2023/01/24 07:35:06;;;;;;;42.63;29.20;;;2.70;99.90;;;;;;4915474;29;20043;-70
2023/01/24 07:37:32;;;;;;;38.87;27.37;;;2.70;99.90;;;;;;4894770;29;20506;-70
2023/01/24 07:39:59;;;;;;;30.13;22.67;;;2.70;99.90;;;;;;4921589;29;20066;-69
2023/01/24 07:42:25;;;;;;;33.97;24.07;;;2.70;99.90;;;;;;4880417;29;20043;-69
2023/01/24 07:44:53;;;;;;;30.90;23.75;;;2.70;99.90;;;;;;4899247;29;20036;-71
2023/01/24 07:47:20;;;;;;;34.20;26.50;;;2.70;99.90;;;;;;4902004;29;20036;-70
2023/01/24 07:49:46;;;;;;;30.60;23.50;;;2.70;99.90;;;;;;4902655;29;20416;-70
2023/01/24 07:52:13;;;;;;;34.63;25.63;;;2.60;99.90;;;;;;4895463;29;20032;-69
2023/01/24 07:54:39;;;;;;;35.15;25.88;;;2.60;99.90;;;;;;4898251;29;20039;-70
2023/01/24 07:57:05;;;;;;;32.90;24.40;;;2.60;99.90;;;;;;4919430;29;20047;-70
2023/01/24 07:59:31;;;;;;;38.17;28.57;;;2.60;99.90;;;;;;4916975;29;20956;-69
2023/01/24 08:01:58;;;;;;;42.27;29.37;;;2.70;99.90;;;;;;4878485;29;20051;-69
2023/01/24 08:04:24;;;;;;;34.97;25.87;;;2.60;99.90;;;;;;4910668;29;20036;-69
2023/01/24 08:09:35;;;;;;;31.80;22.90;;;2.60;99.90;;;;;;4897265;29;20054;-71
2023/01/24 08:12:02;;;;;;;35.47;25.00;;;2.60;99.90;;;;;;4894994;29;20043;-71
2023/01/24 08:14:28;;;;;;;36.20;26.97;;;2.70;99.90;;;;;;4879633;29;20408;-71
2023/01/24 08:16:54;;;;;;;35.83;26.43;;;2.70;99.90;;;;;;4900205;29;20044;-71
2023/01/24 08:19:20;;;;;;;33.67;24.97;;;2.70;99.90;;;;;;4898987;29;20039;-70
2023/01/24 08:21:47;;;;;;;37.65;28.23;;;2.70;99.90;;;;;;4879016;29;20527;-69
2023/01/24 08:24:13;;;;;;;40.13;28.70;;;2.70;99.90;;;;;;4898325;29;20043;-70
2023/01/24 08:26:39;;;;;;;41.77;29.67;;;2.70;99.90;;;;;;4919929;29;20042;-70
2023/01/24 08:29:05;;;;;;;36.13;27.33;;;2.70;99.90;;;;;;4918118;29;20036;-70
2023/01/24 08:31:32;;;;;;;36.67;26.90;;;2.70;99.90;;;;;;4883688;29;20032;-71
2023/01/24 08:33:58;;;;;;;35.47;26.27;;;2.60;99.90;;;;;;4879657;29;20415;-69
2023/01/24 08:36:24;;;;;;;43.05;31.10;;;2.70;99.90;;;;;;4914430;29;20047;-69
2023/01/24 08:38:51;;;;;;;35.50;26.80;;;2.70;99.90;;;;;;4919582;29;20027;-70
2023/01/24 08:41:17;;;;;;;33.67;24.08;;;2.70;99.90;;;;;;4885106;29;20450;-71
2023/01/24 08:43:43;;;;;;;39.40;28.33;;;2.70;99.90;;;;;;4898172;29;20423;-69
2023/01/24 08:46:10;;;;;;;36.43;25.17;;;2.70;99.90;;;;;;4899161;29;20551;-69
2023/01/24 08:48:36;;;;;;;37.17;27.03;;;2.70;99.90;;;;;;4902399;29;20420;-70
2023/01/24 08:51:04;;;;;;;34.60;26.07;;;2.70;99.90;;;;;;4897584;29;20032;-70
2023/01/24 08:53:30;;;;;;;39.23;29.90;;;2.70;99.90;;;;;;4887291;29;20702;-69
2023/01/24 08:55:57;;;;;;;39.33;29.20;;;2.70;99.90;;;;;;4896220;29;20497;-70
2023/01/24 08:58:23;;;;;;;33.33;25.15;;;2.70;99.90;;;;;;4890036;29;20408;-69
2023/01/24 09:00:49;;;;;;;36.27;26.67;;;2.70;99.90;;;;;;4914981;29;20044;-69
2023/01/24 09:03:18;;;;;;;33.23;24.50;;;2.70;99.90;;;;;;4893999;29;20040;-71
2023/01/24 09:05:45;;;;;;;34.20;24.83;;;2.70;99.90;;;;;;4918369;29;20040;-70
2023/01/24 09:08:11;;;;;;;38.87;28.53;;;2.70;99.90;;;;;;4916056;29;20036;-69
2023/01/24 09:10:38;;;;;;;35.17;25.20;;;2.70;99.90;;;;;;4898981;29;20040;-69
2023/01/24 09:13:04;;;;;;;33.37;25.97;;;2.60;99.90;;;;;;4914651;29;20036;-69
2023/01/24 09:15:31;;;;;;;28.97;22.37;;;2.70;99.90;;;;;;4910961;29;20040;-69
2023/01/24 09:18:02;;;;;;;35.05;26.63;;;2.70;99.90;;;;;;4886453;29;20043;-69
2023/01/24 09:20:28;;;;;;;32.10;23.37;;;2.70;99.90;;;;;;4897577;29;20046;-71
2023/01/24 09:22:54;;;;;;;27.93;20.37;;;2.70;99.90;;;;;;4915154;29;20427;-70
2023/01/24 09:25:22;;;;;;;29.93;22.27;;;2.70;99.90;;;;;;4896339;29;20605;-70
2023/01/24 09:27:55;;;;;;;28.00;20.73;;;2.70;99.90;;;;;;4896616;29;20036;-71
2023/01/24 09:30:22;;;;;;;29.00;22.65;;;2.80;99.90;;;;;;4899159;29;20048;-69
2023/01/24 09:32:48;;;;;;;34.42;25.35;;;2.80;99.90;;;;;;4881110;29;20043;-69
2023/01/24 09:35:15;;;;;;;31.47;23.90;;;2.80;99.90;;;;;;4890804;29;20051;-69
2023/01/24 09:37:42;;;;;;;31.13;23.93;;;2.80;99.90;;;;;;4918086;29;20047;-70
2023/01/24 09:40:18;;;;;;;29.10;21.37;;;2.80;99.90;;;;;;4914219;29;20043;-69
2023/01/24 09:43:15;;;;;;;31.50;24.40;;;2.90;99.90;;;;;;4894888;29;20424;-69
2023/01/24 09:46:04;;;;;;;30.93;24.07;;;2.90;99.90;;;;;;4890232;29;20436;-70
2023/01/24 09:48:33;;;;;;;33.83;24.70;;;2.90;99.90;;;;;;4898339;29;20262;-69
2023/01/24 09:51:12;;;;;;;33.70;24.67;;;2.90;99.90;;;;;;4900982;29;20039;-69
2023/01/24 09:53:43;;;;;;;30.23;23.23;;;2.90;99.90;;;;;;4909174;29;20036;-69
2023/01/24 09:56:33;;;;;;;30.73;24.20;;;2.90;99.90;;;;;;4901967;29;20575;-69
2023/01/24 09:59:16;;;;;;;30.30;22.53;;;2.90;99.90;;;;;;4905138;29;20044;-70
2023/01/24 10:01:43;;;;;;;26.35;19.90;;;2.90;99.90;;;;;;4900837;29;20040;-70
2023/01/24 10:04:20;;;;;;;33.07;26.07;;;2.90;99.90;;;;;;4913656;29;20036;-69
2023/01/24 10:07:22;;;;;;;34.20;26.70;;;2.90;99.90;;;;;;4900278;29;20066;-69
2023/01/24 10:10:40;;;;;;;29.83;23.10;;;2.90;99.90;;;;;;4913460;29;20047;-70
2023/01/24 10:13:22;;;;;;;27.77;20.43;;;2.90;99.90;;;;;;4860504;29;20040;-69
2023/01/24 10:16:00;;;;;;;26.93;20.63;;;2.90;99.90;;;;;;4919459;29;20495;-69
2023/01/24 10:18:42;;;;;;;28.70;21.93;;;3.00;99.90;;;;;;4901295;29;20048;-70
2023/01/24 10:21:17;;;;;;;28.83;22.70;;;3.00;99.90;;;;;;4921977;29;20043;-70
2023/01/24 10:23:57;;;;;;;28.07;22.70;;;3.00;99.90;;;;;;4895411;29;20127;-69
2023/01/24 10:27:13;;;;;;;27.20;20.20;;;3.00;99.90;;;;;;4912404;29;20035;-69
2023/01/24 10:29:41;;;;;;;31.10;23.73;;;3.00;99.90;;;;;;4847787;29;20041;-69
2023/01/24 10:32:29;;;;;;;29.88;22.67;;;3.10;99.90;;;;;;4848421;29;20045;-70
2023/01/24 10:35:12;;;;;;;30.57;23.97;;;3.10;99.90;;;;;;4868019;29;20056;-69
2023/01/24 10:37:43;;;;;;;28.13;22.07;;;3.10;99.90;;;;;;4898961;29;20040;-70
2023/01/24 10:40:15;;;;;;;29.07;23.53;;;3.10;99.90;;;;;;4920303;29;20043;-69
2023/01/24 10:42:42;;;;;;;30.02;21.42;;;3.10;99.90;;;;;;4898852;29;20035;-69
2023/01/24 10:45:35;;;;;;;27.80;22.03;;;3.10;99.90;;;;;;4917213;29;20439;-70
2023/01/24 10:48:30;;;;;;;30.15;23.27;;;3.10;99.90;;;;;;4900767;29;20046;-70
2023/01/24 10:51:11;;;;;;;32.47;24.03;;;3.10;99.90;;;;;;4878057;29;20047;-69
2023/01/24 10:53:37;;;;;;;31.07;23.40;;;3.20;99.90;;;;;;4910081;29;20036;-70
2023/01/24 10:56:04;;;;;;;31.43;24.07;;;3.10;99.90;;;;;;4888867;29;20036;-69
2023/01/24 10:58:39;;;;;;;25.50;20.53;;;3.10;99.90;;;;;;4919093;29;20039;-69
2023/01/24 11:01:17;;;;;;;29.53;23.23;;;3.10;99.90;;;;;;4917182;29;20039;-70
2023/01/24 11:03:44;;;;;;;26.77;20.27;;;3.10;99.90;;;;;;4896560;29;20059;-69
2023/01/24 11:06:34;;;;;;;27.77;21.33;;;3.20;99.90;;;;;;4888393;29;20047;-69
2023/01/24 11:09:13;;;;;;;27.47;20.60;;;3.20;99.90;;;;;;4899594;29;20145;-69
2023/01/24 11:11:46;;;;;;;30.67;24.33;;;3.20;99.90;;;;;;4901058;29;20043;-70
2023/01/24 11:14:20;;;;;;;29.42;22.92;;;3.20;99.90;;;;;;4899229;29;20051;-70
2023/01/24 11:16:49;;;;;;;27.43;22.00;;;3.20;99.90;;;;;;4917693;29;20039;-69
2023/01/24 11:19:36;;;;;;;28.03;21.97;;;3.10;99.90;;;;;;4907246;29;20068;-69
2023/01/24 11:22:20;;;;;;;26.53;20.13;;;3.20;99.90;;;;;;4890621;29;20051;-69
2023/01/24 11:24:47;;;;;;;25.70;19.87;;;3.10;99.90;;;;;;4913385;29;20044;-70
2023/01/24 11:27:18;;;;;;;25.63;21.48;;;3.20;99.90;;;;;;4916538;29;20043;-70
2023/01/24 11:30:04;;;;;;;23.10;19.00;;;3.20;99.90;;;;;;4911184;29;20047;-69
2023/01/24 11:32:52;;;;;;;24.00;18.47;;;3.20;99.90;;;;;;4915304;29;20538;-70
2023/01/24 11:35:28;;;;;;;25.67;19.03;;;3.30;99.90;;;;;;4881487;29;20058;-69
2023/01/24 11:38:13;;;;;;;22.77;19.00;;;3.30;99.90;;;;;;4912171;29;20036;-71
2023/01/24 11:41:03;;;;;;;25.90;19.92;;;3.40;99.90;;;;;;4901729;29;20043;-69
2023/01/24 11:44:01;;;;;;;25.90;19.73;;;3.30;99.90;;;;;;4890816;29;20047;-70
2023/01/24 11:46:57;;;;;;;22.20;16.90;;;3.30;99.90;;;;;;4914800;29;20052;-69
2023/01/24 11:49:51;;;;;;;26.85;21.17;;;3.40;99.90;;;;;;4916538;29;20039;-69
2023/01/24 11:52:35;;;;;;;21.07;16.83;;;3.50;99.90;;;;;;4895176;29;20675;-70
2023/01/24 11:55:25;;;;;;;21.55;17.27;;;3.50;99.90;;;;;;4912969;29;20055;-69
2023/01/24 11:57:57;;;;;;;21.98;16.58;;;3.50;99.90;;;;;;4910661;29;20044;-69
2023/01/24 12:00:29;;;;;;;19.60;15.93;;;3.60;99.90;;;;;;4883654;29;20396;-70
2023/01/24 12:03:14;;;;;;;21.02;16.75;;;3.60;99.90;;;;;;4915777;29;20040;-69
2023/01/24 12:06:02;;;;;;;23.07;18.30;;;3.60;99.90;;;;;;4896584;29;20047;-69
2023/01/24 12:09:00;;;;;;;22.17;16.95;;;3.60;99.90;;;;;;4892549;29;20040;-70
2023/01/24 12:11:41;;;;;;;17.27;14.37;;;3.60;99.90;;;;;;4880901;29;20059;-70
2023/01/24 12:14:27;;;;;;;18.88;15.55;;;3.60;99.90;;;;;;4903269;29;20468;-68
2023/01/24 12:17:20;;;;;;;18.65;15.38;;;3.60;99.90;;;;;;4896052;29;20063;-69
2023/01/24 12:20:10;;;;;;;23.83;17.87;;;3.70;99.90;;;;;;4898572;29;20063;-69
2023/01/24 12:22:36;;;;;;;18.10;15.18;;;3.70;99.90;;;;;;4907036;29;20050;-70
2023/01/24 12:25:02;;;;;;;20.20;16.58;;;3.70;99.90;;;;;;4887485;29;20518;-69
2023/01/24 12:27:34;;;;;;;17.45;14.70;;;3.70;99.90;;;;;;4910289;29;20035;-69
2023/01/24 12:30:20;;;;;;;21.75;16.27;;;3.80;99.90;;;;;;4896177;29;20044;-69
2023/01/24 12:32:59;;;;;;;20.05;16.05;;;3.80;99.90;;;;;;4878896;29;20523;-69
2023/01/24 12:35:52;;;;;;;15.10;12.00;;;3.80;99.90;;;;;;4889013;29;20056;-73
2023/01/24 12:38:35;;;;;;;16.45;13.38;;;3.80;99.90;;;;;;4911826;29;20527;-71
2023/01/24 12:41:31;;;;;;;;;;;3.70;99.90;;;;;;4907118;29;20036;-70
2023/01/24 12:44:00;;;;;;;17.67;14.43;;;3.70;99.90;;;;;;4877258;29;19926;-70
2023/01/24 12:46:39;;;;;;;18.65;14.82;;;3.60;99.90;;;;;;4885018;29;20055;-71
2023/01/24 12:49:05;;;;;;;24.42;19.45;;;3.50;99.90;;;;;;4897779;29;20047;-70
2023/01/24 12:51:44;;;;;;;18.38;14.63;;;3.50;99.90;;;;;;4905374;29;20051;-69
2023/01/24 12:54:32;;;;;;;20.60;16.40;;;3.50;99.90;;;;;;4882065;29;20037;-69
2023/01/24 12:57:25;;;;;;;18.37;14.63;;;3.50;99.90;;;;;;4908267;29;20039;-69
2023/01/24 12:59:51;;;;;;;;;;;3.50;99.90;;;;;;4894254;29;20041;-68
2023/01/24 13:02:31;;;;;;;20.53;15.30;;;3.50;99.90;;;;;;4890461;29;19929;-70
2023/01/24 13:05:07;;;;;;;20.20;16.63;;;3.50;99.90;;;;;;4879972;29;20044;-69
2023/01/24 13:07:40;;;;;;;22.98;15.73;;;3.50;99.90;;;;;;4879329;29;20406;-70
2023/01/24 13:10:29;;;;;;;16.42;14.02;;;3.50;99.90;;;;;;4915910;29;20035;-69
2023/01/24 13:12:59;;;;;;;17.55;14.27;;;3.60;99.90;;;;;;4907257;29;20040;-70
2023/01/24 13:15:38;;;;;;;17.90;13.90;;;3.60;99.90;;;;;;4912567;29;20703;-70
2023/01/24 13:18:19;;;;;;;16.45;13.82;;;3.60;99.90;;;;;;4901729;29;20051;-70
2023/01/24 13:20:57;;;;;;;18.23;15.27;;;3.60;99.90;;;;;;4912719;29;20036;-70
2023/01/24 13:23:45;;;;;;;16.20;13.53;;;3.50;99.90;;;;;;4909326;29;20071;-71
2023/01/24 13:26:43;;;;;;;24.57;19.70;;;3.50;99.90;;;;;;4882994;29;20044;-69
2023/01/24 13:29:49;;;;;;;19.87;16.27;;;3.40;99.90;;;;;;4908782;29;20277;-71
2023/01/24 13:32:17;;;;;;;22.73;17.83;;;3.40;99.90;;;;;;4911341;29;20055;-69
2023/01/24 13:34:50;;;;;;;19.43;15.10;;;3.30;99.90;;;;;;4878375;29;20082;-69
2023/01/24 13:37:34;;;;;;;15.60;12.53;;;3.30;99.90;;;;;;4918247;29;20036;-69
2023/01/24 13:40:23;;;;;;;17.65;14.77;;;3.30;99.90;;;;;;4911736;29;20055;-69
2023/01/24 13:42:50;;;;;;;17.20;14.63;;;3.40;99.90;;;;;;4895088;29;20492;-69